createdAt,value
2017-09-15T00:01:37.063Z,3.07
2017-09-15T00:04:04.536Z,2.20
2017-09-15T00:06:32.764Z,3.40
2017-09-15T00:09:00.244Z,3.43
2017-09-15T00:11:27.712Z,2.30
2017-09-15T00:13:55.191Z,2.70
2017-09-15T00:16:23.420Z,2.47
2017-09-15T00:18:50.887Z,3.20
2017-09-15T00:21:18.351Z,2.93
2017-09-15T00:23:45.828Z,3.10
2017-09-15T00:26:14.060Z,2.47
2017-09-15T00:28:42.305Z,2.53
2017-09-15T00:31:09.771Z,3.20
2017-09-15T00:33:37.245Z,2.83
2017-09-15T00:36:04.707Z,3.10
2017-09-15T00:38:32.208Z,2.80
2017-09-15T00:40:59.683Z,2.93
2017-09-15T00:43:27.921Z,2.80
2017-09-15T00:45:55.388Z,3.00
2017-09-15T00:48:22.852Z,2.20
2017-09-15T00:50:50.332Z,2.80
2017-09-15T00:53:18.555Z,3.77
2017-09-15T00:55:46.040Z,3.20
2017-09-15T00:58:13.500Z,3.00
2017-09-15T01:00:40.981Z,3.00
2017-09-15T01:03:09.203Z,3.00
2017-09-15T01:05:36.681Z,3.47
2017-09-15T01:08:04.150Z,3.07
2017-09-15T01:10:31.625Z,4.03
2017-09-15T01:12:59.848Z,3.40
2017-09-15T01:15:27.324Z,2.70
2017-09-15T01:17:54.793Z,2.70
2017-09-15T01:20:22.271Z,3.30
2017-09-15T01:22:49.739Z,3.10
2017-09-15T01:25:17.981Z,3.13
2017-09-15T01:27:45.451Z,3.90
2017-09-15T01:30:12.920Z,3.57
2017-09-15T01:32:40.389Z,2.67
2017-09-15T01:35:08.633Z,2.57
2017-09-15T01:37:36.103Z,3.50
2017-09-15T01:40:03.585Z,3.17
2017-09-15T01:42:32.300Z,3.63
2017-09-15T01:44:59.780Z,3.40
2017-09-15T01:47:27.254Z,3.70
2017-09-15T01:49:54.731Z,3.23
2017-09-15T01:52:22.196Z,2.77
2017-09-15T01:54:50.441Z,3.43
2017-09-15T01:57:17.907Z,2.70
2017-09-15T01:59:45.386Z,3.37
2017-09-15T02:02:13.622Z,3.27
2017-09-15T02:04:41.104Z,2.97
2017-09-15T02:07:08.577Z,3.03
2017-09-15T02:09:36.049Z,3.10
2017-09-15T02:12:04.285Z,3.50
2017-09-15T02:14:31.750Z,3.30
2017-09-15T02:16:59.234Z,2.87
2017-09-15T02:19:27.467Z,2.37
2017-09-15T02:21:54.931Z,3.20
2017-09-15T02:24:22.404Z,3.07
2017-09-15T02:26:49.883Z,3.40
2017-09-15T02:29:18.119Z,3.70
2017-09-15T02:31:45.596Z,3.00
2017-09-15T02:34:13.070Z,3.40
2017-09-15T02:36:40.552Z,3.50
2017-09-15T02:39:08.785Z,3.33
2017-09-15T02:41:36.273Z,3.30
2017-09-15T02:44:04.510Z,3.20
2017-09-15T02:46:31.991Z,3.20
2017-09-15T02:48:59.443Z,2.40
2017-09-15T02:51:26.910Z,3.00
2017-09-15T02:53:54.404Z,3.40
2017-09-15T02:56:21.865Z,3.10
2017-09-15T02:58:49.339Z,2.47
2017-09-15T03:01:16.810Z,2.57
2017-09-15T03:03:44.279Z,3.10
2017-09-15T03:06:11.748Z,4.50
2017-09-15T03:08:39.223Z,2.57
2017-09-15T03:11:06.679Z,3.40
2017-09-15T03:13:34.155Z,3.57
2017-09-15T03:16:02.388Z,2.13
2017-09-15T03:18:29.863Z,3.33
2017-09-15T03:20:57.323Z,2.60
2017-09-15T03:23:24.815Z,2.33
2017-09-15T03:25:52.284Z,2.10
2017-09-15T03:28:19.752Z,2.27
2017-09-15T03:30:47.211Z,1.90
2017-09-15T03:33:14.687Z,2.90
2017-09-15T03:35:42.148Z,2.70
2017-09-15T03:38:09.624Z,4.07
2017-09-15T03:40:37.207Z,2.20
2017-09-15T03:43:05.447Z,2.37
2017-09-15T03:45:32.989Z,2.23
2017-09-15T03:48:00.456Z,2.90
2017-09-15T03:50:27.921Z,2.53
2017-09-15T03:52:55.393Z,2.87
2017-09-15T03:55:22.857Z,2.30
2017-09-15T03:57:50.336Z,2.33
2017-09-15T04:00:18.953Z,2.40
2017-09-15T04:02:46.440Z,2.30
2017-09-15T04:05:13.895Z,3.03
2017-09-15T04:07:41.389Z,2.20
2017-09-15T04:10:08.847Z,2.87
2017-09-15T04:12:37.079Z,3.10
2017-09-15T04:15:04.556Z,2.43
2017-09-15T04:17:32.012Z,2.10
2017-09-15T04:19:59.491Z,3.10
2017-09-15T04:22:26.947Z,2.60
2017-09-15T04:24:54.422Z,1.93
2017-09-15T04:27:22.656Z,3.03
2017-09-15T04:29:50.888Z,2.97
2017-09-15T04:32:18.344Z,2.20
2017-09-15T04:34:45.815Z,2.90
2017-09-15T04:37:13.285Z,2.00
2017-09-15T04:39:40.757Z,2.77
2017-09-15T04:42:08.220Z,2.87
2017-09-15T04:44:35.690Z,2.27
2017-09-15T04:47:03.159Z,2.43
2017-09-15T04:49:30.629Z,3.30
2017-09-15T04:51:58.862Z,2.73
2017-09-15T04:54:26.344Z,2.67
2017-09-15T04:56:53.799Z,3.03
2017-09-15T04:59:21.291Z,3.10
2017-09-15T05:01:49.529Z,2.90
2017-09-15T05:04:16.983Z,2.97
2017-09-15T05:06:45.232Z,3.50
2017-09-15T05:09:12.713Z,3.00
2017-09-15T05:11:40.178Z,3.27
2017-09-15T05:14:07.640Z,3.37
2017-09-15T05:16:35.112Z,3.23
2017-09-15T05:19:02.590Z,3.70
2017-09-15T05:21:30.825Z,3.93
2017-09-15T05:23:58.284Z,4.63
2017-09-15T05:26:25.756Z,3.63
2017-09-15T05:28:53.223Z,4.33
2017-09-15T05:31:25.624Z,4.70
2017-09-15T05:33:53.109Z,4.60
2017-09-15T05:36:20.573Z,4.10
2017-09-15T05:38:48.040Z,4.63
2017-09-15T05:41:15.518Z,4.73
2017-09-15T05:43:42.979Z,4.30
2017-09-15T05:46:10.457Z,5.20
2017-09-15T05:48:38.697Z,4.33
2017-09-15T05:51:06.172Z,4.73
2017-09-15T05:53:33.639Z,4.73
2017-09-15T05:56:01.143Z,5.90
2017-09-15T05:58:28.617Z,5.13
2017-09-15T06:00:56.095Z,5.10
2017-09-15T06:03:23.555Z,4.60
2017-09-15T06:05:51.024Z,6.20
2017-09-15T06:08:18.507Z,5.33
2017-09-15T06:10:46.743Z,6.10
2017-09-15T06:13:14.219Z,5.80
2017-09-15T06:15:41.674Z,5.90
2017-09-15T06:18:09.139Z,7.10
2017-09-15T06:20:36.598Z,6.73
2017-09-15T06:23:04.068Z,5.67
2017-09-15T06:25:32.299Z,6.40
2017-09-15T06:27:59.776Z,6.93
2017-09-15T06:30:27.233Z,6.90
2017-09-15T06:32:54.707Z,7.20
2017-09-15T06:35:22.164Z,7.80
2017-09-15T06:37:49.631Z,7.60
2017-09-15T06:40:17.886Z,6.90
2017-09-15T06:42:45.354Z,6.40
2017-09-15T06:45:12.824Z,8.40
2017-09-15T06:47:40.298Z,8.23
2017-09-15T06:50:08.528Z,8.53
2017-09-15T06:52:35.999Z,7.37
2017-09-15T06:55:03.472Z,7.33
2017-09-15T06:57:30.949Z,6.77
2017-09-15T06:59:59.176Z,7.17
2017-09-15T07:02:26.651Z,8.50
2017-09-15T07:04:54.144Z,9.53
2017-09-15T07:07:22.404Z,6.63
2017-09-15T07:09:49.875Z,7.87
2017-09-15T07:12:18.129Z,7.67
2017-09-15T07:14:45.595Z,6.80
2017-09-15T07:17:13.076Z,7.13
2017-09-15T07:19:40.555Z,7.30
2017-09-15T07:22:08.011Z,6.53
2017-09-15T07:24:35.488Z,6.20
2017-09-15T07:27:02.957Z,5.40
2017-09-15T07:29:30.428Z,6.50
2017-09-15T07:31:57.893Z,5.60
2017-09-15T07:34:25.375Z,5.70
2017-09-15T07:36:53.618Z,5.90
2017-09-15T07:39:21.120Z,5.00
2017-09-15T07:41:49.340Z,4.30
2017-09-15T07:44:16.812Z,4.27
2017-09-15T07:46:44.266Z,4.20
2017-09-15T07:49:11.746Z,4.27
2017-09-15T07:51:39.200Z,4.47
2017-09-15T07:54:06.671Z,4.00
2017-09-15T07:56:34.907Z,4.50
2017-09-15T07:59:02.376Z,3.30
2017-09-15T08:01:29.838Z,3.10
2017-09-15T08:03:57.322Z,3.30
2017-09-15T08:06:25.551Z,3.90
2017-09-15T08:08:53.019Z,3.33
2017-09-15T08:11:20.479Z,3.00
2017-09-15T08:13:47.955Z,3.90
2017-09-15T08:16:15.415Z,3.07
2017-09-15T08:18:42.894Z,3.90
2017-09-15T08:21:11.131Z,3.17
2017-09-15T08:23:38.607Z,3.87
2017-09-15T08:26:06.075Z,3.23
2017-09-15T08:28:33.544Z,3.90
2017-09-15T08:31:01.771Z,3.50
2017-09-15T08:33:29.235Z,3.40
2017-09-15T08:35:56.699Z,3.10
2017-09-15T08:38:24.171Z,3.77
2017-09-15T08:40:51.639Z,3.73
2017-09-15T08:43:19.100Z,2.90
2017-09-15T08:45:47.330Z,3.17
2017-09-15T08:48:14.798Z,2.90
2017-09-15T08:50:42.272Z,3.20
2017-09-15T08:53:09.743Z,3.63
2017-09-15T08:55:37.206Z,2.80
2017-09-15T08:58:05.441Z,3.00
2017-09-15T09:00:32.912Z,3.43
2017-09-15T09:03:00.368Z,2.83
2017-09-15T09:05:27.830Z,2.90
2017-09-15T09:07:55.296Z,2.87
2017-09-15T09:10:22.763Z,3.00
2017-09-15T09:12:50.223Z,2.47
2017-09-15T09:15:17.703Z,2.57
2017-09-15T09:17:45.942Z,3.83
2017-09-15T09:20:13.407Z,3.53
2017-09-15T09:22:40.883Z,3.80
2017-09-15T09:25:08.348Z,3.33
2017-09-15T09:27:36.580Z,3.90
2017-09-15T09:30:04.047Z,3.70
2017-09-15T09:32:31.511Z,3.50
2017-09-15T09:34:59.307Z,2.83
2017-09-15T09:37:27.535Z,4.20
2017-09-15T09:39:55.003Z,2.87
2017-09-15T09:42:22.474Z,3.17
2017-09-15T09:44:49.936Z,3.07
2017-09-15T09:47:17.408Z,3.27
2017-09-15T09:49:45.635Z,3.40
2017-09-15T09:52:13.103Z,3.70
2017-09-15T09:54:40.569Z,4.50
2017-09-15T09:57:08.032Z,4.60
2017-09-15T09:59:35.491Z,4.00
2017-09-15T10:02:03.117Z,3.97
2017-09-15T10:04:30.571Z,3.07
2017-09-15T10:06:58.039Z,3.50
2017-09-15T10:09:25.514Z,3.70
2017-09-15T10:11:52.979Z,3.87
2017-09-15T10:14:20.434Z,3.20
2017-09-15T10:16:47.907Z,2.70
2017-09-15T10:19:15.371Z,3.00
2017-09-15T10:21:42.839Z,3.33
2017-09-15T10:24:10.304Z,2.50
2017-09-15T10:26:38.541Z,3.93
2017-09-15T10:29:06.007Z,2.80
2017-09-15T10:31:33.472Z,3.30
2017-09-15T10:34:00.935Z,3.77
2017-09-15T10:39:06.773Z,3.67
2017-09-15T10:41:34.224Z,3.70
2017-09-15T10:44:01.703Z,3.50
2017-09-15T10:46:29.163Z,3.70
2017-09-15T10:48:56.648Z,3.87
2017-09-15T10:51:24.107Z,4.37
2017-09-15T10:53:51.586Z,3.10
2017-09-15T10:56:19.812Z,2.83
2017-09-15T10:58:53.635Z,2.77
2017-09-15T11:01:21.096Z,2.70
2017-09-15T11:03:48.568Z,2.87
2017-09-15T11:06:16.027Z,3.23
2017-09-15T11:08:43.495Z,2.50
2017-09-15T11:11:11.723Z,2.63
2017-09-15T11:13:39.191Z,2.83
2017-09-15T11:16:06.655Z,3.20
2017-09-15T11:18:34.132Z,3.03
2017-09-15T11:21:01.600Z,2.40
2017-09-15T11:23:29.059Z,3.00
2017-09-15T11:25:57.285Z,2.37
2017-09-15T11:28:24.757Z,2.87
2017-09-15T11:30:52.215Z,2.57
2017-09-15T11:33:19.688Z,2.60
2017-09-15T11:35:47.147Z,2.27
2017-09-15T11:38:14.626Z,1.80
2017-09-15T11:40:42.858Z,2.70
2017-09-15T11:43:10.322Z,2.63
2017-09-15T11:45:37.804Z,2.23
2017-09-15T11:48:05.272Z,2.50
2017-09-15T11:50:33.533Z,2.20
2017-09-15T11:53:00.991Z,1.70
2017-09-15T11:55:28.464Z,2.10
2017-09-15T11:57:55.920Z,1.63
2017-09-15T12:00:23.396Z,1.80
2017-09-15T12:02:51.627Z,1.37
2017-09-15T12:05:19.092Z,1.83
2017-09-15T12:07:46.550Z,2.03
2017-09-15T12:10:14.023Z,2.23
2017-09-15T12:12:41.499Z,1.80
2017-09-15T12:15:09.740Z,1.73
2017-09-15T12:17:37.199Z,1.90
2017-09-15T12:20:04.669Z,1.97
2017-09-15T12:22:32.131Z,1.97
2017-09-15T12:25:01.112Z,2.20
2017-09-15T12:27:28.579Z,1.80
2017-09-15T12:29:56.054Z,1.80
2017-09-15T12:32:23.524Z,1.50
2017-09-15T12:34:51.754Z,1.40
2017-09-15T12:37:19.243Z,1.60
2017-09-15T12:39:46.723Z,1.63
2017-09-15T12:42:14.948Z,1.70
2017-09-15T12:44:42.400Z,1.40
2017-09-15T12:47:09.875Z,1.20
2017-09-15T12:49:37.343Z,1.93
2017-09-15T12:52:04.808Z,1.40
2017-09-15T12:54:32.267Z,1.60
2017-09-15T12:56:59.735Z,1.97
2017-09-15T12:59:27.968Z,1.10
2017-09-15T13:01:55.475Z,2.30
2017-09-15T13:04:22.915Z,1.30
2017-09-15T13:06:50.379Z,1.30
2017-09-15T13:09:17.849Z,1.30
2017-09-15T13:11:46.093Z,1.80
2017-09-15T13:14:13.551Z,1.27
2017-09-15T13:16:41.026Z,1.30
2017-09-15T13:19:08.484Z,1.10
2017-09-15T13:21:35.947Z,1.43
2017-09-15T13:24:03.416Z,1.30
2017-09-15T13:26:31.652Z,0.90
2017-09-15T13:28:59.889Z,1.57
2017-09-15T13:31:27.380Z,1.00
2017-09-15T13:33:54.848Z,1.07
2017-09-15T13:36:22.314Z,1.13
2017-09-15T13:38:50.551Z,1.47
2017-09-15T13:41:18.015Z,1.20
2017-09-15T13:43:45.473Z,0.93
2017-09-15T13:46:12.946Z,1.40
2017-09-15T13:48:40.417Z,1.10
2017-09-15T13:51:07.883Z,1.10
2017-09-15T13:53:36.114Z,1.30
2017-09-15T13:56:03.571Z,1.63
2017-09-15T13:58:31.047Z,0.97
2017-09-15T14:00:58.506Z,1.10
2017-09-15T14:03:25.995Z,1.27
2017-09-15T14:05:54.222Z,1.67
2017-09-15T14:08:21.700Z,1.33
2017-09-15T14:10:49.177Z,1.70
2017-09-15T14:13:16.649Z,1.10
2017-09-15T14:15:44.870Z,1.60
2017-09-15T14:18:12.347Z,1.43
2017-09-15T14:20:39.799Z,1.40
2017-09-15T14:23:07.270Z,2.40
2017-09-15T14:25:34.745Z,1.40
2017-09-15T14:28:02.262Z,1.57
2017-09-15T14:30:29.727Z,2.13
2017-09-15T14:32:57.201Z,1.30
2017-09-15T14:35:24.668Z,1.53
2017-09-15T14:37:52.127Z,1.60
2017-09-15T14:40:19.589Z,1.70
2017-09-15T14:42:47.050Z,1.87
2017-09-15T14:45:16.216Z,1.30
2017-09-15T14:47:43.670Z,1.37
2017-09-15T14:50:11.139Z,1.50
2017-09-15T14:52:38.586Z,1.33
2017-09-15T14:55:06.052Z,1.20
2017-09-15T14:57:33.538Z,1.70
2017-09-15T15:00:00.999Z,1.33
2017-09-15T15:02:28.455Z,1.27
2017-09-15T15:04:55.923Z,1.40
2017-09-15T15:07:23.390Z,1.77
2017-09-15T15:09:50.856Z,1.57
2017-09-15T15:12:18.311Z,1.60
2017-09-15T15:14:45.779Z,1.70
2017-09-15T15:17:13.239Z,1.07
2017-09-15T15:19:40.716Z,1.80
2017-09-15T15:22:08.925Z,1.63
2017-09-15T15:24:36.399Z,1.40
2017-09-15T15:27:03.862Z,1.80
2017-09-15T15:29:31.323Z,1.17
2017-09-15T15:31:58.791Z,1.00
2017-09-15T15:34:26.245Z,1.37
2017-09-15T15:36:53.715Z,1.37
2017-09-15T15:39:21.167Z,1.37
2017-09-15T15:41:48.622Z,1.40
2017-09-15T15:44:16.077Z,1.20
2017-09-15T15:46:43.551Z,1.20
2017-09-15T15:49:11.002Z,0.70
2017-09-15T15:51:38.476Z,1.17
2017-09-15T15:54:06.704Z,1.17
2017-09-15T15:56:34.167Z,1.00
2017-09-15T15:59:01.628Z,1.33
2017-09-15T16:01:29.088Z,1.60
2017-09-15T16:03:56.543Z,1.53
2017-09-15T16:06:24.016Z,1.20
2017-09-15T16:08:51.476Z,1.50
2017-09-15T16:11:18.940Z,1.67
2017-09-15T16:13:46.400Z,1.40
2017-09-15T16:16:13.861Z,1.40
2017-09-15T16:18:41.326Z,1.73
2017-09-15T16:21:08.800Z,1.80
2017-09-15T16:23:37.019Z,1.13
2017-09-15T16:26:04.493Z,1.23
2017-09-15T16:28:31.966Z,1.20
2017-09-15T16:30:59.434Z,1.50
2017-09-15T16:33:26.882Z,1.20
2017-09-15T16:35:54.343Z,1.20
2017-09-15T16:38:27.462Z,1.33
2017-09-15T16:41:01.407Z,1.17
2017-09-15T16:43:34.470Z,1.20
2017-09-15T16:46:07.686Z,1.17
2017-09-15T16:48:40.784Z,0.90
2017-09-15T16:51:08.303Z,1.10
2017-09-15T16:53:36.647Z,1.47
2017-09-15T16:56:04.102Z,1.47
2017-09-15T16:58:31.561Z,1.00
2017-09-15T17:00:59.023Z,1.00
2017-09-15T17:03:26.490Z,1.20
2017-09-15T17:05:53.937Z,1.40
2017-09-15T17:08:21.399Z,1.73
2017-09-15T17:10:48.854Z,1.10
2017-09-15T17:13:16.325Z,1.00
2017-09-15T17:15:43.791Z,1.10
2017-09-15T17:18:11.244Z,1.30
2017-09-15T17:20:38.699Z,1.40
2017-09-15T17:23:06.162Z,1.80
2017-09-15T17:25:33.618Z,1.20
2017-09-15T17:28:01.079Z,1.47
2017-09-15T17:30:29.316Z,1.80
2017-09-15T17:32:56.787Z,1.73
2017-09-15T17:35:24.247Z,2.00
2017-09-15T17:37:51.715Z,1.70
2017-09-15T17:40:19.178Z,1.70
2017-09-15T17:42:46.642Z,1.60
2017-09-15T17:45:14.104Z,1.60
2017-09-15T17:47:41.562Z,1.93
2017-09-15T17:50:09.803Z,2.70
2017-09-15T17:52:37.268Z,1.97
2017-09-15T17:55:04.736Z,1.77
2017-09-15T17:57:32.183Z,1.80
2017-09-15T17:59:59.651Z,1.57
2017-09-15T18:02:27.107Z,1.93
2017-09-15T18:04:54.578Z,1.87
2017-09-15T18:07:22.036Z,2.03
2017-09-15T18:09:49.505Z,2.30
2017-09-15T18:12:17.734Z,2.03
2017-09-15T18:14:45.196Z,2.47
2017-09-15T18:17:12.659Z,2.40
2017-09-15T18:19:40.122Z,2.83
2017-09-15T18:22:07.596Z,2.77
2017-09-15T18:24:35.070Z,2.00
2017-09-15T18:27:02.518Z,2.50
2017-09-15T18:29:29.995Z,1.90
2017-09-15T18:31:58.211Z,2.27
2017-09-15T18:34:25.666Z,2.20
2017-09-15T18:36:53.159Z,3.10
2017-09-15T18:39:20.597Z,2.70
2017-09-15T18:41:48.062Z,2.23
2017-09-15T18:44:16.337Z,2.13
2017-09-15T18:46:43.797Z,2.33
2017-09-15T18:49:11.626Z,2.30
2017-09-15T18:51:39.095Z,1.70
2017-09-15T18:54:06.563Z,1.90
2017-09-15T18:56:34.010Z,2.30
2017-09-15T18:59:01.494Z,1.80
2017-09-15T19:01:28.962Z,2.10
2017-09-15T19:03:56.427Z,2.50
2017-09-15T19:06:23.900Z,2.47
2017-09-15T19:08:51.353Z,2.97
2017-09-15T19:11:18.827Z,2.10
2017-09-15T19:13:47.052Z,2.07
2017-09-15T19:16:14.512Z,2.47
2017-09-15T19:18:41.975Z,2.40
2017-09-15T19:21:09.450Z,2.07
2017-09-15T19:23:36.908Z,2.50
2017-09-15T19:26:04.380Z,2.57
2017-09-15T19:28:31.842Z,2.40
2017-09-15T19:30:59.294Z,2.90
2017-09-15T19:33:26.762Z,2.30
2017-09-15T19:35:54.985Z,2.80
2017-09-15T19:38:22.464Z,2.20
2017-09-15T19:40:49.926Z,2.10
2017-09-15T19:43:17.398Z,2.53
2017-09-15T19:45:44.863Z,2.00
2017-09-15T19:48:12.330Z,2.30
2017-09-15T19:50:40.649Z,2.70
2017-09-15T19:53:08.106Z,2.60
2017-09-15T19:55:35.587Z,2.03
2017-09-15T19:58:03.064Z,2.37
2017-09-15T20:00:30.505Z,2.27
2017-09-15T20:02:57.980Z,2.47
2017-09-15T20:05:25.488Z,2.20
2017-09-15T20:07:52.963Z,1.87
2017-09-15T20:10:20.439Z,2.13
2017-09-15T20:12:47.920Z,1.90
2017-09-15T20:15:15.388Z,1.90
2017-09-15T20:17:46.273Z,2.50
2017-09-15T20:20:13.753Z,2.33
2017-09-15T20:22:41.219Z,1.83
2017-09-15T20:25:08.693Z,1.97
2017-09-15T20:27:36.176Z,2.40
2017-09-15T20:30:04.406Z,1.50
2017-09-15T20:32:31.873Z,1.67
2017-09-15T20:34:59.357Z,1.80
2017-09-15T20:37:27.588Z,1.80
2017-09-15T20:39:55.340Z,2.10
2017-09-15T20:42:23.014Z,2.33
2017-09-15T20:44:50.487Z,1.80
2017-09-15T20:47:17.957Z,1.77
2017-09-15T20:49:45.428Z,1.53
2017-09-15T20:52:13.662Z,1.60
2017-09-15T20:54:41.133Z,1.60
2017-09-15T20:57:08.610Z,2.00
2017-09-15T20:59:36.094Z,1.40
2017-09-15T21:02:04.324Z,2.00
2017-09-15T21:04:31.808Z,1.83
2017-09-15T21:06:59.276Z,1.83
2017-09-15T21:09:27.516Z,1.73
2017-09-15T21:11:54.983Z,2.10
2017-09-15T21:14:23.106Z,1.70
2017-09-15T21:16:54.466Z,2.10
2017-09-15T21:19:25.196Z,1.67
2017-09-15T21:21:52.755Z,1.60
2017-09-15T21:24:20.232Z,1.83
2017-09-15T21:26:47.701Z,1.50
2017-09-15T21:29:15.189Z,1.53
2017-09-15T21:31:43.432Z,1.50
2017-09-15T21:34:10.913Z,1.90
2017-09-15T21:36:38.389Z,2.37
2017-09-15T21:39:06.624Z,2.40
2017-09-15T21:41:34.104Z,1.43
2017-09-15T21:44:01.574Z,1.77
2017-09-15T21:46:29.812Z,1.73
2017-09-15T21:48:57.282Z,1.77
2017-09-15T21:51:24.764Z,2.20
2017-09-15T21:53:53.000Z,2.13
2017-09-15T21:56:20.491Z,2.27
2017-09-15T21:58:48.734Z,2.03
2017-09-15T22:01:16.215Z,2.83
2017-09-15T22:03:50.340Z,1.93
2017-09-15T22:06:18.609Z,1.33
2017-09-15T22:08:46.088Z,1.73
2017-09-15T22:11:14.372Z,1.60
2017-09-15T22:13:42.611Z,2.20
2017-09-15T22:16:10.613Z,2.13
2017-09-15T22:18:38.081Z,2.23
2017-09-15T22:21:05.560Z,1.93
2017-09-15T22:23:33.045Z,1.70
2017-09-15T22:26:00.536Z,1.70
2017-09-15T22:28:28.029Z,1.27
2017-09-15T22:30:55.512Z,1.67
2017-09-15T22:33:23.739Z,2.00
2017-09-15T22:35:51.227Z,2.03
2017-09-15T22:38:18.692Z,1.90
2017-09-15T22:40:46.989Z,1.97
2017-09-15T22:43:15.219Z,1.93
2017-09-15T22:45:42.702Z,1.83
2017-09-15T22:48:10.189Z,2.07
2017-09-15T22:50:37.657Z,1.67
2017-09-15T22:53:05.138Z,1.93
2017-09-15T22:55:32.605Z,1.87
2017-09-15T22:58:00.094Z,2.27
2017-09-15T23:00:27.611Z,1.90
2017-09-15T23:02:55.081Z,2.33
2017-09-15T23:05:22.588Z,1.80
2017-09-15T23:07:50.842Z,1.63
2017-09-15T23:10:18.312Z,1.53
2017-09-15T23:12:46.547Z,1.40
2017-09-15T23:15:15.231Z,2.40
2017-09-15T23:17:46.526Z,2.17
2017-09-15T23:20:14.762Z,2.07
2017-09-15T23:22:42.240Z,2.27
2017-09-15T23:25:09.713Z,2.03
2017-09-15T23:27:37.956Z,2.00
2017-09-15T23:30:05.438Z,1.97
2017-09-15T23:32:32.917Z,2.00
2017-09-15T23:35:01.363Z,1.67
2017-09-15T23:37:28.856Z,2.10
2017-09-15T23:39:57.088Z,1.80
2017-09-15T23:42:24.563Z,2.30
2017-09-15T23:44:52.052Z,1.97
2017-09-15T23:47:19.524Z,1.20
2017-09-15T23:49:47.004Z,1.70
2017-09-15T23:52:14.471Z,2.00
2017-09-15T23:54:41.955Z,2.17
2017-09-15T23:57:09.419Z,2.23
2017-09-15T23:59:36.904Z,1.80
